sensor_id;sensor_type;location;lat;lon;timestamp;P1;durP1;ratioP1;P2;durP2;ratioP2
4794;SDS011;2411;47.060;15.064;2023-05-16T00:01:29;1.03;;;1.03;;
4794;SDS011;2411;47.060;15.064;2023-05-16T00:03:56;1.20;;;1.20;;
4794;SDS011;2411;47.060;15.064;2023-05-16T00:06:24;1.37;;;1.27;;
4794;SDS011;2411;47.060;15.064;2023-05-16T00:08:51;1.33;;;1.33;;
4794;SDS011;2411;47.060;15.064;2023-05-16T00:11:18;2.13;;;2.03;;
4794;SDS011;2411;47.060;15.064;2023-05-16T00:13:45;4.43;;;1.77;;
4794;SDS011;2411;47.060;15.064;2023-05-16T00:16:14;5.63;;;1.97;;
4794;SDS011;2411;47.060;15.064;2023-05-16T00:18:41;2.07;;;1.97;;
4794;SDS011;2411;47.060;15.064;2023-05-16T00:21:11;3.67;;;1.90;;
4794;SDS011;2411;47.060;15.064;2023-05-16T00:23:39;1.93;;;1.83;;
4794;SDS011;2411;47.060;15.064;2023-05-16T00:26:06;1.83;;;1.73;;
4794;SDS011;2411;47.060;15.064;2023-05-16T00:28:33;2.33;;;2.13;;
4794;SDS011;2411;47.060;15.064;2023-05-16T00:31:01;1.60;;;1.50;;
4794;SDS011;2411;47.060;15.064;2023-05-16T00:33:28;1.87;;;1.77;;
4794;SDS011;2411;47.060;15.064;2023-05-16T00:35:56;1.77;;;1.67;;
4794;SDS011;2411;47.060;15.064;2023-05-16T00:38:23;1.97;;;1.83;;
4794;SDS011;2411;47.060;15.064;2023-05-16T00:40:51;2.10;;;1.60;;
4794;SDS011;2411;47.060;15.064;2023-05-16T00:43:19;1.80;;;1.60;;
4794;SDS011;2411;47.060;15.064;2023-05-16T00:45:46;1.53;;;1.27;;
4794;SDS011;2411;47.060;15.064;2023-05-16T00:48:13;1.63;;;1.53;;
4794;SDS011;2411;47.060;15.064;2023-05-16T00:50:41;1.73;;;1.63;;
4794;SDS011;2411;47.060;15.064;2023-05-16T00:53:09;1.13;;;1.10;;
4794;SDS011;2411;47.060;15.064;2023-05-16T00:55:37;1.67;;;1.57;;
4794;SDS011;2411;47.060;15.064;2023-05-16T00:58:05;1.37;;;1.30;;
4794;SDS011;2411;47.060;15.064;2023-05-16T01:00:32;1.83;;;1.73;;
4794;SDS011;2411;47.060;15.064;2023-05-16T01:02:59;1.40;;;1.40;;
4794;SDS011;2411;47.060;15.064;2023-05-16T01:05:27;1.67;;;1.57;;
4794;SDS011;2411;47.060;15.064;2023-05-16T01:07:55;1.63;;;1.53;;
4794;SDS011;2411;47.060;15.064;2023-05-16T01:10:22;1.50;;;1.40;;
4794;SDS011;2411;47.060;15.064;2023-05-16T01:15:29;1.67;;;1.57;;
4794;SDS011;2411;47.060;15.064;2023-05-16T01:18:05;1.60;;;1.60;;
4794;SDS011;2411;47.060;15.064;2023-05-16T01:28:22;1.60;;;1.50;;
4794;SDS011;2411;47.060;15.064;2023-05-16T01:30:51;1.60;;;1.50;;
4794;SDS011;2411;47.060;15.064;2023-05-16T01:33:18;1.40;;;1.40;;
4794;SDS011;2411;47.060;15.064;2023-05-16T01:35:50;1.57;;;1.50;;
4794;SDS011;2411;47.060;15.064;2023-05-16T01:38:29;1.70;;;1.60;;
4794;SDS011;2411;47.060;15.064;2023-05-16T01:43:58;1.83;;;1.73;;
4794;SDS011;2411;47.060;15.064;2023-05-16T01:46:29;1.73;;;1.63;;
4794;SDS011;2411;47.060;15.064;2023-05-16T01:51:48;1.77;;;1.67;;
4794;SDS011;2411;47.060;15.064;2023-05-16T01:54:19;1.47;;;1.47;;
4794;SDS011;2411;47.060;15.064;2023-05-16T01:56:51;1.43;;;1.33;;
4794;SDS011;2411;47.060;15.064;2023-05-16T01:59:20;1.30;;;1.30;;
4794;SDS011;2411;47.060;15.064;2023-05-16T02:01:51;1.23;;;1.23;;
4794;SDS011;2411;47.060;15.064;2023-05-16T02:04:20;2.20;;;1.83;;
4794;SDS011;2411;47.060;15.064;2023-05-16T02:06:50;1.40;;;1.40;;
4794;SDS011;2411;47.060;15.064;2023-05-16T02:09:17;2.37;;;1.70;;
4794;SDS011;2411;47.060;15.064;2023-05-16T02:11:44;1.60;;;1.50;;
4794;SDS011;2411;47.060;15.064;2023-05-16T02:14:12;1.73;;;1.63;;
4794;SDS011;2411;47.060;15.064;2023-05-16T02:16:40;1.57;;;1.47;;
4794;SDS011;2411;47.060;15.064;2023-05-16T02:19:07;2.97;;;1.53;;
4794;SDS011;2411;47.060;15.064;2023-05-16T02:21:34;1.83;;;1.30;;
4794;SDS011;2411;47.060;15.064;2023-05-16T02:24:02;1.53;;;1.43;;
4794;SDS011;2411;47.060;15.064;2023-05-16T02:26:29;1.57;;;1.50;;
4794;SDS011;2411;47.060;15.064;2023-05-16T02:28:57;1.47;;;1.37;;
4794;SDS011;2411;47.060;15.064;2023-05-16T02:31:28;1.70;;;1.60;;
4794;SDS011;2411;47.060;15.064;2023-05-16T02:33:57;2.03;;;1.70;;
4794;SDS011;2411;47.060;15.064;2023-05-16T02:36:25;1.20;;;1.20;;
4794;SDS011;2411;47.060;15.064;2023-05-16T02:38:52;4.87;;;1.53;;
4794;SDS011;2411;47.060;15.064;2023-05-16T02:41:20;1.60;;;1.50;;
4794;SDS011;2411;47.060;15.064;2023-05-16T02:43:48;1.20;;;1.20;;
4794;SDS011;2411;47.060;15.064;2023-05-16T02:46:25;1.07;;;0.93;;
4794;SDS011;2411;47.060;15.064;2023-05-16T02:48:54;1.50;;;1.40;;
4794;SDS011;2411;47.060;15.064;2023-05-16T02:51:22;3.50;;;1.30;;
4794;SDS011;2411;47.060;15.064;2023-05-16T02:53:51;2.70;;;1.63;;
4794;SDS011;2411;47.060;15.064;2023-05-16T02:56:19;1.70;;;1.60;;
4794;SDS011;2411;47.060;15.064;2023-05-16T02:58:47;2.00;;;1.87;;
4794;SDS011;2411;47.060;15.064;2023-05-16T03:01:15;2.87;;;1.50;;
4794;SDS011;2411;47.060;15.064;2023-05-16T03:03:43;3.50;;;2.00;;
4794;SDS011;2411;47.060;15.064;2023-05-16T03:06:11;2.10;;;1.50;;
4794;SDS011;2411;47.060;15.064;2023-05-16T03:08:38;1.70;;;1.60;;
4794;SDS011;2411;47.060;15.064;2023-05-16T03:11:06;1.27;;;1.27;;
4794;SDS011;2411;47.060;15.064;2023-05-16T03:13:33;1.60;;;1.40;;
4794;SDS011;2411;47.060;15.064;2023-05-16T03:16:00;1.30;;;1.20;;
4794;SDS011;2411;47.060;15.064;2023-05-16T03:18:28;1.50;;;1.40;;
4794;SDS011;2411;47.060;15.064;2023-05-16T03:20:56;1.70;;;1.60;;
4794;SDS011;2411;47.060;15.064;2023-05-16T03:23:23;1.23;;;1.23;;
4794;SDS011;2411;47.060;15.064;2023-05-16T03:25:51;3.03;;;1.30;;
4794;SDS011;2411;47.060;15.064;2023-05-16T03:28:18;1.50;;;1.40;;
4794;SDS011;2411;47.060;15.064;2023-05-16T03:30:45;3.97;;;1.20;;
4794;SDS011;2411;47.060;15.064;2023-05-16T03:33:13;1.37;;;1.27;;
4794;SDS011;2411;47.060;15.064;2023-05-16T03:35:40;1.80;;;1.63;;
4794;SDS011;2411;47.060;15.064;2023-05-16T03:38:09;4.43;;;1.47;;
4794;SDS011;2411;47.060;15.064;2023-05-16T03:40:36;3.53;;;1.73;;
4794;SDS011;2411;47.060;15.064;2023-05-16T03:43:03;1.80;;;1.70;;
4794;SDS011;2411;47.060;15.064;2023-05-16T03:45:31;2.40;;;1.90;;
4794;SDS011;2411;47.060;15.064;2023-05-16T03:47:58;1.20;;;1.20;;
4794;SDS011;2411;47.060;15.064;2023-05-16T03:50:26;1.70;;;1.60;;
4794;SDS011;2411;47.060;15.064;2023-05-16T03:52:53;1.70;;;1.60;;
4794;SDS011;2411;47.060;15.064;2023-05-16T03:55:20;3.17;;;1.93;;
4794;SDS011;2411;47.060;15.064;2023-05-16T03:57:47;1.97;;;1.87;;
4794;SDS011;2411;47.060;15.064;2023-05-16T04:00:16;1.90;;;1.80;;
4794;SDS011;2411;47.060;15.064;2023-05-16T04:02:44;2.20;;;2.00;;
4794;SDS011;2411;47.060;15.064;2023-05-16T04:05:11;2.00;;;1.90;;
4794;SDS011;2411;47.060;15.064;2023-05-16T04:07:39;2.37;;;2.17;;
4794;SDS011;2411;47.060;15.064;2023-05-16T04:10:07;2.70;;;2.50;;
4794;SDS011;2411;47.060;15.064;2023-05-16T04:12:35;1.60;;;1.50;;
4794;SDS011;2411;47.060;15.064;2023-05-16T04:15:03;5.40;;;1.60;;
4794;SDS011;2411;47.060;15.064;2023-05-16T04:17:31;2.20;;;2.10;;
4794;SDS011;2411;47.060;15.064;2023-05-16T04:19:59;3.07;;;1.93;;
4794;SDS011;2411;47.060;15.064;2023-05-16T04:22:26;3.53;;;2.13;;
4794;SDS011;2411;47.060;15.064;2023-05-16T04:24:54;3.00;;;2.00;;
4794;SDS011;2411;47.060;15.064;2023-05-16T04:27:21;2.03;;;1.93;;
4794;SDS011;2411;47.060;15.064;2023-05-16T04:29:49;2.30;;;2.10;;
4794;SDS011;2411;47.060;15.064;2023-05-16T04:32:16;2.00;;;1.90;;
4794;SDS011;2411;47.060;15.064;2023-05-16T04:34:43;2.13;;;1.80;;
4794;SDS011;2411;47.060;15.064;2023-05-16T04:37:12;1.60;;;1.50;;
4794;SDS011;2411;47.060;15.064;2023-05-16T04:39:40;1.80;;;1.70;;
4794;SDS011;2411;47.060;15.064;2023-05-16T04:42:08;1.93;;;1.83;;
4794;SDS011;2411;47.060;15.064;2023-05-16T04:44:35;4.17;;;1.90;;
4794;SDS011;2411;47.060;15.064;2023-05-16T04:47:03;1.83;;;1.73;;
4794;SDS011;2411;47.060;15.064;2023-05-16T04:49:30;2.20;;;2.00;;
4794;SDS011;2411;47.060;15.064;2023-05-16T04:51:57;2.20;;;2.10;;
4794;SDS011;2411;47.060;15.064;2023-05-16T04:54:25;3.10;;;1.97;;
4794;SDS011;2411;47.060;15.064;2023-05-16T04:56:52;2.40;;;2.20;;
4794;SDS011;2411;47.060;15.064;2023-05-16T04:59:19;3.57;;;2.13;;
4794;SDS011;2411;47.060;15.064;2023-05-16T05:01:47;2.40;;;2.30;;
4794;SDS011;2411;47.060;15.064;2023-05-16T05:04:14;2.10;;;2.00;;
4794;SDS011;2411;47.060;15.064;2023-05-16T05:06:43;1.83;;;1.83;;
4794;SDS011;2411;47.060;15.064;2023-05-16T05:09:10;2.83;;;2.33;;
4794;SDS011;2411;47.060;15.064;2023-05-16T05:11:38;2.27;;;2.17;;
4794;SDS011;2411;47.060;15.064;2023-05-16T05:14:05;5.10;;;2.40;;
4794;SDS011;2411;47.060;15.064;2023-05-16T05:16:32;2.77;;;2.60;;
4794;SDS011;2411;47.060;15.064;2023-05-16T05:19:00;2.43;;;2.23;;
4794;SDS011;2411;47.060;15.064;2023-05-16T05:21:28;2.80;;;2.53;;
4794;SDS011;2411;47.060;15.064;2023-05-16T05:23:56;2.53;;;2.13;;
4794;SDS011;2411;47.060;15.064;2023-05-16T05:26:23;3.03;;;2.53;;
4794;SDS011;2411;47.060;15.064;2023-05-16T05:28:51;8.83;;;2.60;;
4794;SDS011;2411;47.060;15.064;2023-05-16T05:31:31;2.00;;;1.90;;
4794;SDS011;2411;47.060;15.064;2023-05-16T05:34:01;2.53;;;2.23;;
4794;SDS011;2411;47.060;15.064;2023-05-16T05:36:28;1.80;;;1.70;;
4794;SDS011;2411;47.060;15.064;2023-05-16T05:38:56;2.70;;;2.60;;
4794;SDS011;2411;47.060;15.064;2023-05-16T05:41:24;6.43;;;2.37;;
4794;SDS011;2411;47.060;15.064;2023-05-16T05:43:52;3.00;;;2.40;;
4794;SDS011;2411;47.060;15.064;2023-05-16T05:46:19;2.80;;;2.23;;
4794;SDS011;2411;47.060;15.064;2023-05-16T05:48:47;4.10;;;2.60;;
4794;SDS011;2411;47.060;15.064;2023-05-16T05:51:14;2.47;;;2.37;;
4794;SDS011;2411;47.060;15.064;2023-05-16T05:53:43;2.40;;;2.20;;
4794;SDS011;2411;47.060;15.064;2023-05-16T05:56:10;5.23;;;2.63;;
4794;SDS011;2411;47.060;15.064;2023-05-16T05:58:38;4.03;;;2.50;;
4794;SDS011;2411;47.060;15.064;2023-05-16T06:01:09;4.90;;;2.80;;
4794;SDS011;2411;47.060;15.064;2023-05-16T06:03:37;3.10;;;3.00;;
4794;SDS011;2411;47.060;15.064;2023-05-16T06:06:04;3.00;;;2.73;;
4794;SDS011;2411;47.060;15.064;2023-05-16T06:08:32;4.53;;;3.17;;
4794;SDS011;2411;47.060;15.064;2023-05-16T06:10:59;2.67;;;2.47;;
4794;SDS011;2411;47.060;15.064;2023-05-16T06:13:27;4.90;;;2.87;;
4794;SDS011;2411;47.060;15.064;2023-05-16T06:15:54;3.67;;;3.07;;
4794;SDS011;2411;47.060;15.064;2023-05-16T06:18:22;6.50;;;2.90;;
4794;SDS011;2411;47.060;15.064;2023-05-16T06:20:49;4.60;;;4.20;;
4794;SDS011;2411;47.060;15.064;2023-05-16T06:23:18;2.93;;;2.73;;
4794;SDS011;2411;47.060;15.064;2023-05-16T06:25:47;3.00;;;2.80;;
4794;SDS011;2411;47.060;15.064;2023-05-16T06:28:14;8.30;;;3.70;;
4794;SDS011;2411;47.060;15.064;2023-05-16T06:30:41;4.50;;;3.60;;
4794;SDS011;2411;47.060;15.064;2023-05-16T06:33:08;4.63;;;3.40;;
4794;SDS011;2411;47.060;15.064;2023-05-16T06:35:36;3.93;;;3.57;;
4794;SDS011;2411;47.060;15.064;2023-05-16T06:38:03;3.40;;;3.20;;
4794;SDS011;2411;47.060;15.064;2023-05-16T06:40:30;3.57;;;3.33;;
4794;SDS011;2411;47.060;15.064;2023-05-16T06:42:57;3.50;;;3.30;;
4794;SDS011;2411;47.060;15.064;2023-05-16T06:45:25;3.90;;;3.70;;
4794;SDS011;2411;47.060;15.064;2023-05-16T06:47:53;3.90;;;3.70;;
4794;SDS011;2411;47.060;15.064;2023-05-16T06:50:23;4.13;;;3.83;;
4794;SDS011;2411;47.060;15.064;2023-05-16T06:52:50;4.27;;;3.90;;
4794;SDS011;2411;47.060;15.064;2023-05-16T06:55:17;4.40;;;4.00;;
4794;SDS011;2411;47.060;15.064;2023-05-16T06:57:45;3.97;;;3.67;;
4794;SDS011;2411;47.060;15.064;2023-05-16T07:00:13;3.10;;;3.00;;
4794;SDS011;2411;47.060;15.064;2023-05-16T07:02:41;3.10;;;2.90;;
4794;SDS011;2411;47.060;15.064;2023-05-16T07:05:09;2.83;;;2.73;;
4794;SDS011;2411;47.060;15.064;2023-05-16T07:07:36;3.80;;;3.60;;
4794;SDS011;2411;47.060;15.064;2023-05-16T07:10:03;3.50;;;3.27;;
4794;SDS011;2411;47.060;15.064;2023-05-16T07:12:35;3.27;;;3.00;;
4794;SDS011;2411;47.060;15.064;2023-05-16T07:15:04;3.43;;;3.13;;
4794;SDS011;2411;47.060;15.064;2023-05-16T07:17:32;4.07;;;3.40;;
4794;SDS011;2411;47.060;15.064;2023-05-16T07:19:59;4.10;;;3.80;;
4794;SDS011;2411;47.060;15.064;2023-05-16T07:22:31;4.03;;;3.70;;
4794;SDS011;2411;47.060;15.064;2023-05-16T07:24:58;4.40;;;3.30;;
4794;SDS011;2411;47.060;15.064;2023-05-16T07:27:27;3.77;;;3.47;;
4794;SDS011;2411;47.060;15.064;2023-05-16T07:29:54;3.70;;;3.50;;
4794;SDS011;2411;47.060;15.064;2023-05-16T07:32:21;7.57;;;3.87;;
4794;SDS011;2411;47.060;15.064;2023-05-16T07:34:49;3.70;;;3.40;;
4794;SDS011;2411;47.060;15.064;2023-05-16T07:37:16;4.90;;;4.50;;
4794;SDS011;2411;47.060;15.064;2023-05-16T07:39:46;4.70;;;4.03;;
4794;SDS011;2411;47.060;15.064;2023-05-16T07:42:13;4.77;;;4.37;;
4794;SDS011;2411;47.060;15.064;2023-05-16T07:44:41;3.47;;;3.27;;
4794;SDS011;2411;47.060;15.064;2023-05-16T07:47:08;4.30;;;4.00;;
4794;SDS011;2411;47.060;15.064;2023-05-16T07:49:35;5.20;;;4.73;;
4794;SDS011;2411;47.060;15.064;2023-05-16T07:52:03;6.03;;;5.63;;
4794;SDS011;2411;47.060;15.064;2023-05-16T07:54:31;6.43;;;5.33;;
4794;SDS011;2411;47.060;15.064;2023-05-16T07:57:00;4.97;;;4.67;;
4794;SDS011;2411;47.060;15.064;2023-05-16T07:59:27;5.30;;;4.80;;
4794;SDS011;2411;47.060;15.064;2023-05-16T08:01:55;4.07;;;3.77;;
4794;SDS011;2411;47.060;15.064;2023-05-16T08:04:23;4.70;;;4.40;;
4794;SDS011;2411;47.060;15.064;2023-05-16T08:06:50;4.80;;;4.50;;
4794;SDS011;2411;47.060;15.064;2023-05-16T08:09:17;5.13;;;4.77;;
4794;SDS011;2411;47.060;15.064;2023-05-16T08:11:44;5.73;;;5.03;;
4794;SDS011;2411;47.060;15.064;2023-05-16T08:14:12;5.00;;;3.80;;
4794;SDS011;2411;47.060;15.064;2023-05-16T08:16:40;4.13;;;3.83;;
4794;SDS011;2411;47.060;15.064;2023-05-16T08:19:07;4.17;;;3.30;;
4794;SDS011;2411;47.060;15.064;2023-05-16T08:21:37;3.63;;;3.43;;
4794;SDS011;2411;47.060;15.064;2023-05-16T08:24:04;3.60;;;3.40;;
4794;SDS011;2411;47.060;15.064;2023-05-16T08:26:32;3.73;;;3.53;;
4794;SDS011;2411;47.060;15.064;2023-05-16T08:29:00;3.80;;;3.60;;
4794;SDS011;2411;47.060;15.064;2023-05-16T08:31:27;3.53;;;3.33;;
4794;SDS011;2411;47.060;15.064;2023-05-16T08:33:54;4.73;;;4.33;;
4794;SDS011;2411;47.060;15.064;2023-05-16T08:36:25;4.83;;;3.70;;
4794;SDS011;2411;47.060;15.064;2023-05-16T08:38:53;4.30;;;3.97;;
4794;SDS011;2411;47.060;15.064;2023-05-16T08:41:21;4.30;;;4.00;;
4794;SDS011;2411;47.060;15.064;2023-05-16T08:43:48;4.53;;;4.00;;
4794;SDS011;2411;47.060;15.064;2023-05-16T08:46:16;4.17;;;3.90;;
4794;SDS011;2411;47.060;15.064;2023-05-16T08:48:51;5.90;;;5.33;;
4794;SDS011;2411;47.060;15.064;2023-05-16T08:51:22;7.07;;;5.80;;
4794;SDS011;2411;47.060;15.064;2023-05-16T08:53:59;6.90;;;5.40;;
4794;SDS011;2411;47.060;15.064;2023-05-16T08:56:30;4.87;;;4.47;;
4794;SDS011;2411;47.060;15.064;2023-05-16T08:59:01;5.10;;;4.20;;
4794;SDS011;2411;47.060;15.064;2023-05-16T09:01:29;3.60;;;3.40;;
4794;SDS011;2411;47.060;15.064;2023-05-16T09:04:00;4.43;;;4.13;;
4794;SDS011;2411;47.060;15.064;2023-05-16T09:06:29;4.53;;;4.13;;
4794;SDS011;2411;47.060;15.064;2023-05-16T09:08:59;4.37;;;3.97;;
4794;SDS011;2411;47.060;15.064;2023-05-16T09:11:28;4.67;;;4.27;;
4794;SDS011;2411;47.060;15.064;2023-05-16T09:13:56;4.10;;;3.70;;
4794;SDS011;2411;47.060;15.064;2023-05-16T09:16:23;4.23;;;3.97;;
4794;SDS011;2411;47.060;15.064;2023-05-16T09:19:00;3.33;;;3.10;;
4794;SDS011;2411;47.060;15.064;2023-05-16T09:21:28;4.00;;;3.70;;
4794;SDS011;2411;47.060;15.064;2023-05-16T09:24:06;3.30;;;3.10;;
4794;SDS011;2411;47.060;15.064;2023-05-16T09:26:35;3.40;;;3.20;;
4794;SDS011;2411;47.060;15.064;2023-05-16T09:29:10;3.97;;;3.63;;
4794;SDS011;2411;47.060;15.064;2023-05-16T09:31:38;3.00;;;2.80;;
4794;SDS011;2411;47.060;15.064;2023-05-16T09:34:07;3.57;;;3.37;;
4794;SDS011;2411;47.060;15.064;2023-05-16T09:36:36;3.03;;;2.90;;
4794;SDS011;2411;47.060;15.064;2023-05-16T09:39:04;3.33;;;3.07;;
4794;SDS011;2411;47.060;15.064;2023-05-16T09:41:33;3.30;;;2.97;;
4794;SDS011;2411;47.060;15.064;2023-05-16T09:44:05;3.60;;;3.40;;
4794;SDS011;2411;47.060;15.064;2023-05-16T09:46:33;3.17;;;2.77;;
4794;SDS011;2411;47.060;15.064;2023-05-16T09:49:01;4.47;;;3.20;;
4794;SDS011;2411;47.060;15.064;2023-05-16T09:51:29;2.53;;;2.40;;
4794;SDS011;2411;47.060;15.064;2023-05-16T09:53:57;7.40;;;3.00;;
4794;SDS011;2411;47.060;15.064;2023-05-16T09:56:26;2.73;;;2.63;;
4794;SDS011;2411;47.060;15.064;2023-05-16T09:58:55;3.10;;;2.83;;
4794;SDS011;2411;47.060;15.064;2023-05-16T10:01:23;3.43;;;3.00;;
4794;SDS011;2411;47.060;15.064;2023-05-16T10:03:51;3.60;;;3.40;;
4794;SDS011;2411;47.060;15.064;2023-05-16T10:06:19;2.70;;;2.50;;
4794;SDS011;2411;47.060;15.064;2023-05-16T10:08:49;3.17;;;2.97;;
4794;SDS011;2411;47.060;15.064;2023-05-16T10:11:17;3.20;;;3.00;;
4794;SDS011;2411;47.060;15.064;2023-05-16T10:13:45;3.47;;;3.30;;
4794;SDS011;2411;47.060;15.064;2023-05-16T10:16:19;4.10;;;3.63;;
4794;SDS011;2411;47.060;15.064;2023-05-16T10:18:49;3.33;;;3.13;;
4794;SDS011;2411;47.060;15.064;2023-05-16T10:21:17;3.90;;;3.67;;
4794;SDS011;2411;47.060;15.064;2023-05-16T10:23:47;3.40;;;3.20;;
4794;SDS011;2411;47.060;15.064;2023-05-16T10:26:17;3.47;;;3.03;;
4794;SDS011;2411;47.060;15.064;2023-05-16T10:28:46;5.30;;;3.50;;
4794;SDS011;2411;47.060;15.064;2023-05-16T10:31:14;4.07;;;3.77;;
4794;SDS011;2411;47.060;15.064;2023-05-16T10:33:42;4.03;;;3.73;;
4794;SDS011;2411;47.060;15.064;2023-05-16T10:36:11;4.33;;;4.00;;
4794;SDS011;2411;47.060;15.064;2023-05-16T10:38:40;3.53;;;3.33;;
4794;SDS011;2411;47.060;15.064;2023-05-16T10:41:08;3.87;;;3.57;;
4794;SDS011;2411;47.060;15.064;2023-05-16T10:43:36;3.47;;;3.10;;
4794;SDS011;2411;47.060;15.064;2023-05-16T10:46:05;3.50;;;3.20;;
4794;SDS011;2411;47.060;15.064;2023-05-16T10:48:37;4.10;;;2.40;;
4794;SDS011;2411;47.060;15.064;2023-05-16T10:53:52;3.03;;;2.87;;
4794;SDS011;2411;47.060;15.064;2023-05-16T10:56:21;3.00;;;2.80;;
4794;SDS011;2411;47.060;15.064;2023-05-16T10:58:49;2.67;;;2.57;;
4794;SDS011;2411;47.060;15.064;2023-05-16T11:01:23;2.60;;;2.50;;
4794;SDS011;2411;47.060;15.064;2023-05-16T11:06:35;3.37;;;3.07;;
4794;SDS011;2411;47.060;15.064;2023-05-16T11:16:49;3.00;;;2.80;;
4794;SDS011;2411;47.060;15.064;2023-05-16T11:19:27;2.63;;;2.43;;
4794;SDS011;2411;47.060;15.064;2023-05-16T11:22:03;2.93;;;2.73;;
4794;SDS011;2411;47.060;15.064;2023-05-16T11:24:35;4.00;;;3.17;;
4794;SDS011;2411;47.060;15.064;2023-05-16T11:27:05;4.23;;;3.87;;
4794;SDS011;2411;47.060;15.064;2023-05-16T11:29:33;6.00;;;3.60;;
4794;SDS011;2411;47.060;15.064;2023-05-16T11:32:03;5.70;;;3.53;;
4794;SDS011;2411;47.060;15.064;2023-05-16T11:34:31;3.57;;;3.37;;
4794;SDS011;2411;47.060;15.064;2023-05-16T11:37:05;3.67;;;3.37;;
4794;SDS011;2411;47.060;15.064;2023-05-16T11:39:32;3.70;;;3.50;;
4794;SDS011;2411;47.060;15.064;2023-05-16T11:42:00;2.90;;;2.67;;
4794;SDS011;2411;47.060;15.064;2023-05-16T11:44:28;3.37;;;3.10;;
4794;SDS011;2411;47.060;15.064;2023-05-16T11:46:55;3.30;;;3.00;;
4794;SDS011;2411;47.060;15.064;2023-05-16T11:49:22;3.50;;;3.30;;
4794;SDS011;2411;47.060;15.064;2023-05-16T11:51:50;3.10;;;3.00;;
4794;SDS011;2411;47.060;15.064;2023-05-16T11:54:20;3.60;;;3.40;;
4794;SDS011;2411;47.060;15.064;2023-05-16T11:56:49;3.97;;;3.63;;
4794;SDS011;2411;47.060;15.064;2023-05-16T11:59:17;3.87;;;3.57;;
4794;SDS011;2411;47.060;15.064;2023-05-16T12:01:45;3.73;;;3.53;;
4794;SDS011;2411;47.060;15.064;2023-05-16T12:04:15;3.30;;;3.10;;
4794;SDS011;2411;47.060;15.064;2023-05-16T12:06:43;3.87;;;3.57;;
4794;SDS011;2411;47.060;15.064;2023-05-16T12:09:11;5.30;;;4.00;;
4794;SDS011;2411;47.060;15.064;2023-05-16T12:11:43;2.87;;;2.67;;
4794;SDS011;2411;47.060;15.064;2023-05-16T12:14:11;3.27;;;3.07;;
4794;SDS011;2411;47.060;15.064;2023-05-16T12:16:40;2.20;;;2.10;;
4794;SDS011;2411;47.060;15.064;2023-05-16T12:19:09;3.60;;;2.60;;
4794;SDS011;2411;47.060;15.064;2023-05-16T12:21:37;3.97;;;3.77;;
4794;SDS011;2411;47.060;15.064;2023-05-16T12:24:08;3.00;;;2.80;;
4794;SDS011;2411;47.060;15.064;2023-05-16T12:26:38;6.10;;;2.87;;
4794;SDS011;2411;47.060;15.064;2023-05-16T12:29:06;3.20;;;2.70;;
4794;SDS011;2411;47.060;15.064;2023-05-16T12:31:37;2.83;;;2.63;;
4794;SDS011;2411;47.060;15.064;2023-05-16T12:34:16;2.40;;;2.30;;
4794;SDS011;2411;47.060;15.064;2023-05-16T12:36:44;2.30;;;2.20;;
4794;SDS011;2411;47.060;15.064;2023-05-16T12:39:17;2.87;;;2.67;;
4794;SDS011;2411;47.060;15.064;2023-05-16T12:41:45;2.93;;;2.27;;
4794;SDS011;2411;47.060;15.064;2023-05-16T12:46:43;2.53;;;2.33;;
4794;SDS011;2411;47.060;15.064;2023-05-16T12:49:20;2.63;;;2.30;;
4794;SDS011;2411;47.060;15.064;2023-05-16T12:51:52;3.20;;;2.43;;
4794;SDS011;2411;47.060;15.064;2023-05-16T12:54:21;2.80;;;2.60;;
4794;SDS011;2411;47.060;15.064;2023-05-16T12:56:48;2.83;;;2.63;;
4794;SDS011;2411;47.060;15.064;2023-05-16T12:59:16;2.70;;;2.50;;
4794;SDS011;2411;47.060;15.064;2023-05-16T13:01:45;3.70;;;2.73;;
4794;SDS011;2411;47.060;15.064;2023-05-16T13:04:12;6.30;;;2.50;;
4794;SDS011;2411;47.060;15.064;2023-05-16T13:06:44;3.73;;;2.47;;
4794;SDS011;2411;47.060;15.064;2023-05-16T13:09:25;2.63;;;2.43;;
4794;SDS011;2411;47.060;15.064;2023-05-16T13:11:57;2.90;;;2.73;;
4794;SDS011;2411;47.060;15.064;2023-05-16T13:14:25;2.50;;;2.30;;
4794;SDS011;2411;47.060;15.064;2023-05-16T13:16:52;5.23;;;2.10;;
4794;SDS011;2411;47.060;15.064;2023-05-16T13:19:20;2.40;;;2.30;;
4794;SDS011;2411;47.060;15.064;2023-05-16T13:21:48;1.97;;;1.87;;
4794;SDS011;2411;47.060;15.064;2023-05-16T13:24:16;2.30;;;2.20;;
4794;SDS011;2411;47.060;15.064;2023-05-16T13:26:43;2.30;;;2.17;;
4794;SDS011;2411;47.060;15.064;2023-05-16T13:29:10;2.53;;;2.40;;
4794;SDS011;2411;47.060;15.064;2023-05-16T13:31:38;2.33;;;2.23;;
4794;SDS011;2411;47.060;15.064;2023-05-16T13:34:06;2.37;;;2.20;;
4794;SDS011;2411;47.060;15.064;2023-05-16T13:36:33;2.20;;;2.10;;
4794;SDS011;2411;47.060;15.064;2023-05-16T13:39:19;1.90;;;1.83;;
4794;SDS011;2411;47.060;15.064;2023-05-16T13:41:47;2.10;;;2.00;;
4794;SDS011;2411;47.060;15.064;2023-05-16T13:44:15;2.00;;;1.90;;
4794;SDS011;2411;47.060;15.064;2023-05-16T13:46:43;2.33;;;2.23;;
4794;SDS011;2411;47.060;15.064;2023-05-16T13:49:11;2.50;;;2.40;;
4794;SDS011;2411;47.060;15.064;2023-05-16T13:51:38;3.03;;;2.60;;
4794;SDS011;2411;47.060;15.064;2023-05-16T13:54:06;3.63;;;3.13;;
4794;SDS011;2411;47.060;15.064;2023-05-16T13:56:33;2.00;;;1.80;;
4794;SDS011;2411;47.060;15.064;2023-05-16T13:59:00;1.30;;;1.30;;
4794;SDS011;2411;47.060;15.064;2023-05-16T14:01:33;1.80;;;1.70;;
4794;SDS011;2411;47.060;15.064;2023-05-16T14:04:00;1.70;;;1.60;;
4794;SDS011;2411;47.060;15.064;2023-05-16T14:06:28;1.63;;;1.43;;
4794;SDS011;2411;47.060;15.064;2023-05-16T14:08:56;1.60;;;1.50;;
4794;SDS011;2411;47.060;15.064;2023-05-16T14:11:24;2.00;;;1.90;;
4794;SDS011;2411;47.060;15.064;2023-05-16T14:13:55;2.00;;;1.90;;
4794;SDS011;2411;47.060;15.064;2023-05-16T14:16:23;1.80;;;1.60;;
4794;SDS011;2411;47.060;15.064;2023-05-16T14:18:51;1.57;;;1.57;;
4794;SDS011;2411;47.060;15.064;2023-05-16T14:21:18;1.37;;;1.33;;
4794;SDS011;2411;47.060;15.064;2023-05-16T14:23:45;1.37;;;1.37;;
4794;SDS011;2411;47.060;15.064;2023-05-16T14:26:14;1.30;;;1.30;;
4794;SDS011;2411;47.060;15.064;2023-05-16T14:28:42;1.63;;;1.53;;
4794;SDS011;2411;47.060;15.064;2023-05-16T14:31:09;3.43;;;1.90;;
4794;SDS011;2411;47.060;15.064;2023-05-16T14:33:37;1.73;;;1.63;;
4794;SDS011;2411;47.060;15.064;2023-05-16T14:36:06;2.03;;;1.90;;
4794;SDS011;2411;47.060;15.064;2023-05-16T14:38:34;2.30;;;2.20;;
4794;SDS011;2411;47.060;15.064;2023-05-16T14:41:02;2.40;;;2.30;;
4794;SDS011;2411;47.060;15.064;2023-05-16T14:43:29;1.83;;;1.73;;
4794;SDS011;2411;47.060;15.064;2023-05-16T14:45:56;1.23;;;1.23;;
4794;SDS011;2411;47.060;15.064;2023-05-16T14:48:24;1.30;;;1.20;;
4794;SDS011;2411;47.060;15.064;2023-05-16T14:50:51;2.63;;;1.33;;
4794;SDS011;2411;47.060;15.064;2023-05-16T14:53:19;1.53;;;1.40;;
4794;SDS011;2411;47.060;15.064;2023-05-16T14:55:47;1.27;;;1.10;;
4794;SDS011;2411;47.060;15.064;2023-05-16T14:58:15;1.47;;;1.47;;
4794;SDS011;2411;47.060;15.064;2023-05-16T15:00:42;1.40;;;1.30;;
4794;SDS011;2411;47.060;15.064;2023-05-16T15:03:09;1.50;;;1.40;;
4794;SDS011;2411;47.060;15.064;2023-05-16T15:05:40;5.17;;;1.07;;
4794;SDS011;2411;47.060;15.064;2023-05-16T15:08:07;3.10;;;1.03;;
4794;SDS011;2411;47.060;15.064;2023-05-16T15:10:35;1.47;;;1.10;;
4794;SDS011;2411;47.060;15.064;2023-05-16T15:13:02;0.90;;;0.90;;
4794;SDS011;2411;47.060;15.064;2023-05-16T15:15:30;1.33;;;1.23;;
4794;SDS011;2411;47.060;15.064;2023-05-16T15:17:58;1.17;;;1.17;;
4794;SDS011;2411;47.060;15.064;2023-05-16T15:20:26;1.00;;;1.00;;
4794;SDS011;2411;47.060;15.064;2023-05-16T15:22:54;1.27;;;1.20;;
4794;SDS011;2411;47.060;15.064;2023-05-16T15:25:21;1.60;;;1.53;;
4794;SDS011;2411;47.060;15.064;2023-05-16T15:27:49;3.73;;;1.10;;
4794;SDS011;2411;47.060;15.064;2023-05-16T15:30:17;2.83;;;1.30;;
4794;SDS011;2411;47.060;15.064;2023-05-16T15:32:44;1.13;;;1.00;;
4794;SDS011;2411;47.060;15.064;2023-05-16T15:35:12;1.40;;;1.30;;
4794;SDS011;2411;47.060;15.064;2023-05-16T15:37:41;3.07;;;2.47;;
4794;SDS011;2411;47.060;15.064;2023-05-16T15:40:11;1.70;;;1.60;;